Terminal Aerodrome Forecast
Issued by NWS

Home | Current Version | Previous Version | Text Only | Print | Product List | Glossary On
Versions: 1 2 3 4 5 6 7 8 9 10 11 12 13 14 15 16 17 18 19 20 21 22 23 24 25 26 27 28
000
FTUS45 KPSR 301400 AAB
TAFPHX
TAF AMD
KPHX 301438Z 3015/3112 10010KT P6SM -SHRA SCT007 OVC015
      TEMPO 3015/3016 5SM -RA BR BKN007 OVC015
     FM301600 10006KT 6SM -SHRA BR SCT015 BKN025 OVC035
      TEMPO 3018/3022 -RA FEW008 BKN015 OVC035=

USA.gov is the U.S. government's official web portal to all federal, state and local government web resources and services.